< < Back
Terminal Aerodrome Forecast


Current Version              Previous Versions:   1  2  3  4  5  6  7  8  9  

Terminal Aerodrome Forecast

944
FTUS42 KMLB 211120
TAFDAB
TAF
KDAB 211120Z 2112/2212 24005KT P6SM FEW004 FEW250
     FM211400 28007KT P6SM SCT030
     FM212000 29008KT P6SM VCTS SCT035CB BKN060
      TEMPO 2121/2123 3SM TSRA BKN020CB
     FM220200 28006KT P6SM FEW040 BKN250
     FM220600 31004KT P6SM SCT250=

Latest METAR

862
SAUS80 KWBC 220800
MTRDAB
METAR KDAB 220753Z 27004KT 9SM FEW070 23/22 A3000 RMK AO2 SLP157
T02330222


USA.gov is the U.S. government's official web portal to all federal, state and local government web resources and services.